Sunday, November 19, 2017, 2:43 AM GMT
Back to Local

CYZX, Greenwood, N. S.

Location: , , Canada Lat: 44.983
Local Time: 2:43 AM GMT ( 2:43 GMT) Lon: -64.917
Time Zone: GMT Elev: 91 ft

Show me the last for .
Show Decoded

2017-11-19 02:00 METAR CYZX 190200Z 19004KT 15SM OVC130 02/M01 A2979 RMK AC8 WNDY HILL UNAVBL
                 SLP090 =
2017-11-19 01:00 METAR CYZX 190100Z 31002KT 15SM FEW024 OVC100 02/M01 A2981 RMK SC2AC6 WNDY HILL
                 UNAVBL SLP096 =
2017-11-19 00:00 METAR CYZX 190000Z 24003KT 15SM SCT024 OVC120 02/M01 A2980 RMK SC4AC4 WNDY HILL
                 UNAVBL SLP093 =
2017-11-18 23:00 METAR CYZX 182300Z 20002KT 15SM BKN021 OVC130 02/M01 A2980 RMK SC5AC3 WNDY HILL
                 UNAVBL SLP094 =
2017-11-18 22:00 METAR CYZX 182200Z 22005KT 15SM BKN021 OVC200 02/M01 A2980 RMK SC6CI2 WNDY HILL
                 UNAVBL SLP094 =
2017-11-18 21:00 METAR CYZX 182100Z 23007KT 15SM BKN021 02/M02 A2981 RMK SC7 WNDY HILL UNAVBL
                 SLP095 =
2017-11-18 20:00 METAR CYZX 182000Z 25010KT 15SM OVC020 02/M02 A2980 RMK SC8 WNDY HILL UNAVBL
                 SLP093 =
2017-11-18 19:00 METAR CYZX 181900Z 25012KT 15SM OVC020 03/M02 A2980 RMK SC8 WNDY HILL UNAVBL
                 SLP092 =
2017-11-18 18:00 METAR CYZX 181800Z 24009G15KT 15SM OVC020 03/M02 A2979 RMK SC8 WNDY HILL UNAVBL
                 SLP089 =
2017-11-18 17:00 METAR CYZX 181700Z 24010KT 15SM OVC020 01/M02 A2979 RMK SC8 WNDY HILL UNAVBL
                 SLP090 =
2017-11-18 16:00 METAR CYZX 181600Z 25012KT 15SM OVC017 01/M02 A2980 RMK SC8 WNDY HILL UNAVBL
                 SLP092 =
2017-11-18 15:00 METAR CYZX 181500Z 29005KT 15SM OVC018 01/M02 A2981 RMK SC8 WNDY HILL UNAVBL
                 SLP096 =
2017-11-18 14:00 METAR CYZX 181400Z 29011KT 15SM OVC017 00/M02 A2981 RMK SC8 WNDY HILL UNAVBL
                 SLP095 =
2017-11-18 13:00 METAR CYZX 181300Z 31016G21KT 15SM OVC018 M00/M02 A2981 RMK SC8 WNDY HILL UNAVBL
                 SLP095 =
2017-11-18 12:00 METAR CYZX 181200Z 28011G16KT 15SM OVC018 M00/M02 A2979 RMK SC8 WNDY HILL UNAVBL
                 SLP089 =
2017-11-18 11:00 METAR CYZX 181100Z 29013G21KT 15SM OVC018 M00/M03 A2977 RMK SC8 WNDY HILL UNAVBL
                 SLP084 =
2017-11-18 10:00 METAR CYZX 181000Z 27013G20KT 15SM OVC018 00/M03 A2974 RMK SC8 WNDY HILL UNAVBL
                 SLP072 =
2017-11-18 09:00 METAR CYZX 180900Z 29012G21KT 15SM OVC020 00/M03 A2971 RMK SC8 WNDY HILL UNAVBL
                 SLP063 =
2017-11-18 08:00 METAR CYZX 180800Z 29012G18KT 15SM OVC020 01/M03 A2970 RMK SC8 WNDY HILL UNAVBL
                 SLP057 =
2017-11-18 07:31 METAR CYZX 180731Z 29010KT 15SM OVC020 01/M03 A2968 RMK SC8 WNDY HILL UNAVBL
                 SLP051 =
2017-11-18 07:00 METAR CYZX 180700Z 29011G16KT 15SM SCT020 OVC030 01/M03 A2968 RMK SC4SC4 WNDY
                 HILL UNAVBL SLP051 =
2017-11-18 06:00 METAR CYZX 180600Z 28015KT 15SM SCT020 OVC030 01/M01 A2966 RMK SC4SC4 WNDY HILL
                 UNAVBL SLP046 =
2017-11-18 05:00 METAR CYZX 180500Z 28015G21KT 15SM FEW020 OVC030 01/00 A2966 RMK SC2SC6 WNDY
                 HILL UNAVBL SLP044 =
2017-11-18 04:00 METAR CYZX 180400Z 29021G29KT 15SM OVC030 02/M02 A2964 RMK SC8 WNDY HILL UNAVBL
                 SLP038 =
2017-11-18 03:35 METAR CYZX 180335Z 29012G26KT 15SM OVC028 02/M02 A2964 RMK SC8 WNDY HILL UNAVBL
                 SLP037 =
2017-11-18 03:00 METAR CYZX 180300Z 28020G26KT 15SM BKN020 OVC030 02/M02 A2962 RMK SC5SC3 WNDY
                 HILL UNAVBL SLP031 =

Support USWX by starting your Amazon purchase here.